Time;durP1;ratioP1;P1;durP2;ratioP2;P2;SDS_P1;SDS_P2;PMS_P1;PMS_P2;Temp;Humidity;BMP_temperature;BMP_pressure;BME280_temperature;BME280_humidity;BME280_pressure;Samples;Min_cycle;Max_cycle;Signal;HPM_P1;HPM_P2
2021/07/30 00:00:26;;;;;;;9.75;3.33;;;14.20;99.90;;;;;;5063272;28;20032;-67
2021/07/30 00:02:51;;;;;;;12.60;3.40;;;14.20;99.90;;;;;;5074261;28;20043;-68
2021/07/30 00:05:17;;;;;;;10.63;3.38;;;14.10;99.90;;;;;;5054468;28;20400;-68
2021/07/30 00:07:44;;;;;;;8.05;3.58;;;14.10;99.90;;;;;;5062201;28;20029;-67
2021/07/30 00:10:10;;;;;;;10.65;3.15;;;14.10;99.90;;;;;;5080019;28;20030;-68
2021/07/30 00:12:36;;;;;;;11.07;3.75;;;14.10;99.90;;;;;;5080378;28;20047;-67
2021/07/30 00:15:02;;;;;;;8.82;3.70;;;14.00;99.90;;;;;;5065613;28;20032;-67
2021/07/30 00:17:28;;;;;;;9.38;3.17;;;14.10;99.90;;;;;;5080600;28;20040;-67
2021/07/30 00:19:54;;;;;;;10.10;3.30;;;14.00;99.90;;;;;;5076304;28;20158;-69
2021/07/30 00:22:19;;;;;;;8.88;3.47;;;14.00;99.90;;;;;;5076459;28;20036;-68
2021/07/30 00:24:45;;;;;;;10.80;3.60;;;14.00;99.90;;;;;;5079390;28;20036;-68
2021/07/30 00:27:10;;;;;;;10.23;3.25;;;14.00;99.90;;;;;;5080048;28;20038;-67
2021/07/30 00:29:37;;;;;;;10.07;3.03;;;14.00;99.90;;;;;;5073124;28;20063;-67
2021/07/30 00:32:05;;;;;;;9.68;2.85;;;14.00;99.90;;;;;;5080322;28;20032;-67
2021/07/30 00:34:30;;;;;;;11.02;2.92;;;14.00;99.90;;;;;;5077541;28;20040;-67
2021/07/30 00:36:56;;;;;;;7.45;2.60;;;14.00;99.90;;;;;;5081192;28;20032;-68
2021/07/30 00:39:21;;;;;;;8.55;2.83;;;14.00;99.90;;;;;;5075133;28;20453;-68
2021/07/30 00:41:47;;;;;;;13.48;3.25;;;13.90;99.90;;;;;;5074979;28;20440;-68
2021/07/30 00:44:12;;;;;;;12.32;3.08;;;13.90;99.90;;;;;;5076309;28;20044;-67
2021/07/30 00:46:38;;;;;;;9.85;3.40;;;13.90;99.90;;;;;;5081077;28;20071;-68
2021/07/30 00:49:04;;;;;;;6.80;3.20;;;13.90;99.90;;;;;;5076459;28;20036;-67
2021/07/30 00:51:30;;;;;;;11.82;3.38;;;13.90;99.90;;;;;;5062070;28;20667;-68
2021/07/30 00:53:56;;;;;;;11.00;2.58;;;13.90;99.90;;;;;;5072989;28;20032;-67
2021/07/30 00:56:22;;;;;;;11.57;3.10;;;13.90;99.90;;;;;;5072614;28;20683;-68
2021/07/30 00:58:48;;;;;;;7.47;3.20;;;13.90;99.90;;;;;;5080348;28;20028;-68
2021/07/30 01:01:15;;;;;;;8.13;2.70;;;13.80;99.90;;;;;;5087289;28;20033;-68
2021/07/30 01:03:40;;;;;;;11.70;3.00;;;13.80;99.90;;;;;;5069759;28;20503;-67
2021/07/30 01:06:06;;;;;;;8.48;2.80;;;13.80;99.90;;;;;;5083696;28;20028;-67
2021/07/30 01:08:32;;;;;;;5.35;2.45;;;13.90;99.90;;;;;;5058542;28;20025;-67
2021/07/30 01:10:57;;;;;;;15.23;3.25;;;13.90;99.90;;;;;;5082464;28;20044;-67
2021/07/30 01:13:23;;;;;;;9.98;3.38;;;13.90;99.90;;;;;;5078375;28;20043;-67
2021/07/30 01:15:49;;;;;;;10.18;2.88;;;13.90;99.90;;;;;;5082075;28;20048;-67
2021/07/30 01:18:15;;;;;;;6.95;3.17;;;13.90;99.90;;;;;;5059193;28;20094;-68
2021/07/30 01:20:43;;;;;;;12.43;3.20;;;13.90;99.90;;;;;;5063645;28;20032;-68
2021/07/30 01:23:10;;;;;;;8.23;3.35;;;13.80;99.90;;;;;;5086842;28;20036;-68
2021/07/30 01:25:36;;;;;;;10.48;3.15;;;13.90;99.90;;;;;;5080607;28;20024;-67
2021/07/30 01:28:02;;;;;;;5.60;2.78;;;13.90;99.90;;;;;;5084057;28;20089;-68
2021/07/30 01:30:28;;;;;;;10.15;2.90;;;13.90;99.90;;;;;;5075168;28;20933;-68
2021/07/30 01:32:54;;;;;;;9.63;3.28;;;13.80;99.90;;;;;;5087800;28;20492;-67
2021/07/30 01:35:20;;;;;;;10.70;3.08;;;13.80;99.90;;;;;;5083033;28;20058;-68
2021/07/30 01:37:45;;;;;;;8.52;3.25;;;13.80;99.90;;;;;;5085404;28;20077;-68
2021/07/30 01:40:12;;;;;;;8.13;3.10;;;13.80;99.90;;;;;;5078389;28;20516;-68
2021/07/30 01:42:38;;;;;;;5.45;2.72;;;13.80;99.90;;;;;;5084005;28;20043;-67
2021/07/30 01:45:06;;;;;;;9.20;3.05;;;13.90;99.90;;;;;;5091814;28;20054;-67
2021/07/30 01:47:32;;;;;;;9.48;3.70;;;13.80;99.90;;;;;;5079200;28;20036;-67
2021/07/30 01:49:58;;;;;;;8.15;3.30;;;13.80;99.90;;;;;;5087567;28;20043;-67
2021/07/30 01:52:23;;;;;;;8.45;2.72;;;13.80;99.90;;;;;;5083069;28;20032;-67
2021/07/30 01:54:49;;;;;;;6.07;2.92;;;13.80;99.90;;;;;;5084839;28;20032;-67
2021/07/30 01:57:16;;;;;;;5.57;2.47;;;13.80;99.90;;;;;;5085114;28;20029;-68
2021/07/30 01:59:42;;;;;;;5.60;2.70;;;13.80;99.90;;;;;;5064159;28;20040;-67
2021/07/30 02:02:08;;;;;;;8.13;3.20;;;13.70;99.90;;;;;;5065677;28;20036;-68
2021/07/30 02:04:33;;;;;;;11.38;2.72;;;13.80;99.90;;;;;;5075178;28;20044;-67
2021/07/30 02:07:00;;;;;;;11.23;3.95;;;13.80;99.90;;;;;;5061013;28;20401;-67
2021/07/30 02:09:28;;;;;;;9.38;3.00;;;13.70;99.90;;;;;;5058820;28;20036;-67
2021/07/30 02:11:54;;;;;;;9.02;3.33;;;13.70;99.90;;;;;;5087729;28;20508;-67
2021/07/30 02:14:23;;;;;;;8.32;2.42;;;13.80;99.90;;;;;;5078945;28;20044;-68
2021/07/30 02:16:51;;;;;;;15.10;3.23;;;13.80;99.90;;;;;;5079528;28;20055;-67
2021/07/30 02:19:18;;;;;;;7.05;2.83;;;13.80;99.90;;;;;;5085305;28;20320;-68
2021/07/30 02:21:47;;;;;;;8.77;2.97;;;13.80;99.90;;;;;;5081355;28;20028;-68
2021/07/30 02:24:13;;;;;;;10.95;2.53;;;13.70;99.90;;;;;;5078438;28;20411;-68
2021/07/30 02:26:39;;;;;;;13.77;3.17;;;13.70;99.90;;;;;;5075643;28;20028;-67
2021/07/30 02:29:05;;;;;;;9.43;3.53;;;13.70;99.90;;;;;;5082283;28;20131;-67
2021/07/30 02:31:30;;;;;;;7.25;3.10;;;13.70;99.90;;;;;;5078824;28;20036;-67
2021/07/30 02:33:56;;;;;;;12.23;2.63;;;13.70;99.90;;;;;;5070869;28;20241;-67
2021/07/30 02:36:22;;;;;;;9.95;2.97;;;13.60;99.90;;;;;;5082806;28;20135;-67
2021/07/30 02:38:48;;;;;;;7.78;3.10;;;13.60;99.90;;;;;;5074920;28;20555;-68
2021/07/30 02:41:16;;;;;;;9.20;3.33;;;13.60;99.90;;;;;;5080869;28;20040;-67
2021/07/30 02:43:42;;;;;;;7.13;3.05;;;13.60;99.90;;;;;;5078020;28;20025;-67
2021/07/30 02:46:07;;;;;;;7.45;2.50;;;13.60;99.90;;;;;;5076885;28;20094;-67
2021/07/30 02:48:33;;;;;;;8.32;2.83;;;13.60;99.90;;;;;;5086807;28;20397;-67
2021/07/30 02:50:59;;;;;;;10.20;2.97;;;13.60;99.90;;;;;;5079096;28;20115;-68
2021/07/30 02:53:24;;;;;;;8.27;2.90;;;13.60;99.90;;;;;;5080504;28;20035;-68
2021/07/30 02:55:50;;;;;;;12.50;3.25;;;13.50;99.90;;;;;;5074182;28;20377;-69
2021/07/30 02:58:15;;;;;;;7.25;3.08;;;13.50;99.90;;;;;;5072718;28;20028;-68
2021/07/30 03:00:41;;;;;;;7.55;3.13;;;13.50;99.90;;;;;;5085822;28;20032;-68
2021/07/30 03:03:07;;;;;;;7.90;2.45;;;13.40;99.90;;;;;;5077489;28;20040;-68
2021/07/30 03:05:33;;;;;;;8.80;3.25;;;13.50;99.90;;;;;;5077697;28;20032;-68
2021/07/30 03:07:58;;;;;;;9.05;2.83;;;13.40;99.90;;;;;;5086096;28;20089;-68
2021/07/30 03:10:24;;;;;;;6.72;2.95;;;13.40;99.90;;;;;;5082071;28;20043;-68
2021/07/30 03:12:50;;;;;;;10.77;2.95;;;13.40;99.90;;;;;;5076030;28;20036;-68
2021/07/30 03:15:15;;;;;;;8.88;3.00;;;13.40;99.90;;;;;;5078322;28;20075;-68
2021/07/30 03:17:41;;;;;;;7.90;3.30;;;13.40;99.90;;;;;;5066839;28;20281;-68
2021/07/30 03:20:07;;;;;;;8.88;2.78;;;13.30;99.90;;;;;;5086071;28;20036;-68
2021/07/30 03:22:34;;;;;;;8.65;2.90;;;13.40;99.90;;;;;;5077096;28;20072;-68
2021/07/30 03:25:00;;;;;;;10.10;2.80;;;13.30;99.90;;;;;;5086058;28;20032;-68
2021/07/30 03:27:26;;;;;;;7.13;2.67;;;13.30;99.90;;;;;;5056000;28;20036;-68
2021/07/30 03:29:52;;;;;;;12.18;3.08;;;13.30;99.90;;;;;;5070123;28;20083;-68
2021/07/30 03:32:18;;;;;;;7.43;2.75;;;13.30;99.90;;;;;;5061069;28;20071;-68
2021/07/30 03:34:46;;;;;;;14.45;3.47;;;13.30;99.90;;;;;;5085405;28;20040;-68
2021/07/30 03:37:12;;;;;;;10.30;3.88;;;13.40;99.90;;;;;;5081647;28;20032;-68
2021/07/30 03:39:37;;;;;;;14.52;4.13;;;13.40;99.90;;;;;;5084938;28;20058;-69
2021/07/30 03:42:04;;;;;;;7.53;3.00;;;13.30;99.90;;;;;;5100506;28;20036;-68
2021/07/30 03:44:29;;;;;;;6.35;2.78;;;13.40;99.90;;;;;;5096389;28;20500;-68
2021/07/30 03:46:55;;;;;;;8.02;2.60;;;13.40;99.90;;;;;;5089281;28;20036;-69
2021/07/30 03:49:20;;;;;;;10.57;2.90;;;13.40;99.90;;;;;;5081323;28;20043;-68
2021/07/30 03:51:46;;;;;;;11.05;2.95;;;13.40;99.90;;;;;;5076673;28;20047;-68
2021/07/30 03:54:11;;;;;;;8.85;3.13;;;13.40;99.90;;;;;;5072309;28;20037;-68
2021/07/30 03:56:41;;;;;;;7.93;3.05;;;13.40;99.90;;;;;;5066642;28;20032;-68
2021/07/30 03:59:07;;;;;;;9.95;3.35;;;13.40;99.90;;;;;;5081244;28;20799;-68
2021/07/30 04:01:33;;;;;;;7.82;2.90;;;13.50;99.90;;;;;;5061665;28;20119;-68
2021/07/30 04:03:59;;;;;;;10.68;3.00;;;13.50;99.90;;;;;;5069142;28;20052;-68
2021/07/30 04:06:25;;;;;;;9.75;3.03;;;13.50;99.90;;;;;;5081564;28;20461;-68
2021/07/30 04:08:50;;;;;;;13.00;3.78;;;13.60;99.90;;;;;;5068595;28;20044;-68
2021/07/30 04:11:16;;;;;;;13.82;2.63;;;13.50;99.90;;;;;;5073195;28;20039;-68
2021/07/30 04:13:42;;;;;;;9.43;2.78;;;13.50;99.90;;;;;;5075931;28;20052;-68
2021/07/30 04:16:08;;;;;;;9.40;3.30;;;13.60;99.90;;;;;;5078801;28;20039;-68
2021/07/30 04:18:34;;;;;;;8.90;3.28;;;13.60;99.90;;;;;;5085036;28;20020;-68
2021/07/30 04:21:03;;;;;;;10.73;3.35;;;13.60;99.90;;;;;;5071029;28;20492;-68
2021/07/30 04:23:29;;;;;;;10.30;3.00;;;13.60;99.90;;;;;;5076771;28;20112;-68
2021/07/30 04:25:54;;;;;;;10.25;2.80;;;13.70;99.90;;;;;;5075882;28;20111;-68
2021/07/30 04:28:20;;;;;;;8.60;3.25;;;13.70;99.90;;;;;;5073204;28;20111;-69
2021/07/30 04:30:45;;;;;;;9.55;3.00;;;13.70;99.90;;;;;;5076854;28;20028;-68
2021/07/30 04:33:11;;;;;;;10.98;3.30;;;13.70;99.90;;;;;;5056116;28;20051;-68
2021/07/30 04:35:36;;;;;;;8.85;2.70;;;13.80;99.90;;;;;;5083199;28;20044;-69
2021/07/30 04:38:02;;;;;;;8.40;2.83;;;13.80;99.90;;;;;;5087172;28;20036;-69
2021/07/30 04:40:28;;;;;;;16.90;3.58;;;13.90;99.90;;;;;;5081206;28;20112;-68
2021/07/30 04:42:57;;;;;;;10.95;3.03;;;13.90;99.90;;;;;;5058247;28;20032;-68
2021/07/30 04:45:23;;;;;;;8.50;2.90;;;13.90;99.90;;;;;;5074911;28;20116;-68
2021/07/30 04:47:49;;;;;;;10.73;2.65;;;13.90;99.90;;;;;;5079972;28;20115;-69
2021/07/30 04:50:15;;;;;;;13.75;3.10;;;14.00;99.90;;;;;;5085458;28;20119;-68
2021/07/30 04:52:40;;;;;;;9.80;2.35;;;14.10;99.90;;;;;;5089257;28;20447;-68
2021/07/30 04:55:06;;;;;;;13.73;3.13;;;14.10;99.90;;;;;;5074044;28;20521;-69
2021/07/30 04:57:32;;;;;;;9.93;3.63;;;14.20;99.90;;;;;;5074054;28;20036;-68
2021/07/30 04:59:58;;;;;;;6.47;3.50;;;14.20;99.90;;;;;;5085749;28;20047;-69
2021/07/30 05:02:24;;;;;;;7.10;2.35;;;14.20;99.90;;;;;;5092668;28;20530;-68
2021/07/30 05:04:49;;;;;;;9.07;2.58;;;14.20;99.90;;;;;;5080375;28;20040;-69
2021/07/30 05:07:15;;;;;;;10.05;2.60;;;14.30;99.90;;;;;;5074084;28;20103;-68
2021/07/30 05:09:40;;;;;;;6.28;2.65;;;14.40;99.90;;;;;;5091412;28;20103;-68
2021/07/30 05:12:06;;;;;;;10.50;2.63;;;14.40;99.90;;;;;;5083828;28;20499;-68
2021/07/30 05:14:32;;;;;;;9.70;3.17;;;14.50;99.90;;;;;;5088700;28;20087;-69
2021/07/30 05:16:57;;;;;;;8.13;2.60;;;14.50;99.90;;;;;;5075227;28;20127;-68
2021/07/30 05:19:23;;;;;;;9.23;2.60;;;14.60;99.90;;;;;;5080589;28;20080;-70
2021/07/30 05:21:48;;;;;;;10.48;3.00;;;14.70;99.90;;;;;;5079858;28;20020;-70
2021/07/30 05:24:14;;;;;;;5.53;2.60;;;14.70;99.90;;;;;;5061697;28;20029;-69
2021/07/30 05:26:40;;;;;;;6.05;2.28;;;14.80;99.90;;;;;;5082082;28;20077;-70
2021/07/30 05:29:07;;;;;;;6.55;2.40;;;14.90;99.90;;;;;;5080837;28;20043;-70
2021/07/30 05:31:33;;;;;;;9.50;3.05;;;14.90;99.90;;;;;;5062957;28;20064;-70
2021/07/30 05:33:58;;;;;;;8.80;3.17;;;15.00;99.90;;;;;;5063350;28;20048;-70
2021/07/30 05:36:24;;;;;;;11.95;2.88;;;15.10;99.90;;;;;;5079716;28;20115;-70
2021/07/30 05:38:50;;;;;;;7.95;2.72;;;15.10;99.90;;;;;;5065290;28;20025;-70
2021/07/30 05:41:16;;;;;;;5.90;2.55;;;15.10;99.90;;;;;;5078813;28;20021;-69
2021/07/30 05:43:43;;;;;;;8.43;2.15;;;15.10;99.90;;;;;;5082321;28;20056;-70
2021/07/30 05:46:10;;;;;;;9.27;2.95;;;15.20;99.90;;;;;;5080066;28;20032;-70
2021/07/30 05:48:36;;;;;;;6.95;2.63;;;15.20;99.90;;;;;;5080400;28;20032;-69
2021/07/30 05:51:02;;;;;;;12.88;3.50;;;15.30;99.90;;;;;;5080856;28;20377;-70
2021/07/30 05:53:27;;;;;;;11.35;3.03;;;15.30;99.90;;;;;;5080340;28;20090;-70
2021/07/30 05:55:53;;;;;;;10.63;2.20;;;15.50;99.90;;;;;;5061724;28;20055;-70
2021/07/30 05:58:18;;;;;;;8.25;3.00;;;15.60;99.90;;;;;;5083119;28;20035;-70
2021/07/30 06:00:44;;;;;;;11.05;2.60;;;15.80;99.90;;;;;;5083600;28;20035;-70
2021/07/30 06:03:10;;;;;;;7.22;3.13;;;15.90;99.90;;;;;;5061339;28;20029;-70
2021/07/30 06:05:35;;;;;;;5.97;2.40;;;16.10;99.90;;;;;;5082146;28;20086;-70
2021/07/30 06:08:05;;;;;;;11.73;2.58;;;16.30;99.90;;;;;;5064574;28;20119;-70
2021/07/30 06:10:32;;;;;;;5.32;2.17;;;16.50;99.90;;;;;;5079680;28;20197;-70
2021/07/30 06:12:58;;;;;;;7.90;2.08;;;16.70;99.90;;;;;;5080520;28;20512;-70
2021/07/30 06:15:24;;;;;;;5.35;2.25;;;16.80;99.90;;;;;;5063030;28;20039;-70
2021/07/30 06:17:51;;;;;;;8.27;2.20;;;16.90;99.90;;;;;;5061056;28;20047;-70
2021/07/30 06:20:17;;;;;;;5.13;2.58;;;17.00;99.90;;;;;;5082752;28;20115;-70
2021/07/30 06:22:43;;;;;;;7.43;2.28;;;17.00;99.90;;;;;;5060613;28;20492;-69
2021/07/30 06:25:10;;;;;;;4.63;2.13;;;17.10;99.90;;;;;;5082631;28;20058;-70
2021/07/30 06:27:35;;;;;;;5.03;1.92;;;17.20;99.90;;;;;;5081139;28;20035;-70
2021/07/30 06:30:06;;;;;;;9.70;2.30;;;17.20;99.90;;;;;;5080587;28;20031;-69
2021/07/30 06:32:32;;;;;;;6.43;1.92;;;17.30;99.90;;;;;;5079787;28;20119;-69
2021/07/30 06:34:57;;;;;;;6.95;2.75;;;17.30;99.90;;;;;;5081023;28;20547;-70
2021/07/30 06:37:23;;;;;;;7.22;2.22;;;17.40;99.90;;;;;;5078559;28;20577;-70
2021/07/30 06:39:49;;;;;;;8.55;2.97;;;17.40;99.90;;;;;;5082364;28;20032;-70
2021/07/30 06:42:14;;;;;;;6.00;1.92;;;17.50;99.90;;;;;;5077422;28;20384;-70
2021/07/30 06:44:40;;;;;;;7.78;1.77;;;17.50;99.90;;;;;;5082693;28;20031;-70
2021/07/30 06:47:05;;;;;;;6.80;1.92;;;17.50;99.90;;;;;;5081167;28;20028;-70
2021/07/30 06:49:36;;;;;;;5.03;2.20;;;17.60;99.90;;;;;;5061611;28;20173;-70
2021/07/30 06:52:02;;;;;;;6.40;2.25;;;17.60;99.90;;;;;;5080474;28;20036;-70
2021/07/30 06:54:33;;;;;;;5.30;1.88;;;17.70;99.90;;;;;;5080748;28;20033;-70
2021/07/30 06:56:59;;;;;;;6.57;1.63;;;17.70;99.90;;;;;;5058087;28;20041;-70
2021/07/30 06:59:24;;;;;;;5.15;1.95;;;17.90;99.90;;;;;;5080039;28;20483;-70
2021/07/30 07:01:50;;;;;;;5.03;1.85;;;17.90;99.90;;;;;;5076549;28;20108;-70
2021/07/30 07:04:15;;;;;;;8.30;2.20;;;18.10;99.90;;;;;;5067574;28;20546;-70
2021/07/30 07:06:41;;;;;;;13.70;2.65;;;18.20;99.90;;;;;;5052551;28;20059;-70
2021/07/30 07:09:07;;;;;;;5.70;2.00;;;18.20;99.90;;;;;;5072835;28;20029;-70
2021/07/30 07:11:32;;;;;;;7.85;1.58;;;18.40;99.90;;;;;;5070028;28;20024;-70
2021/07/30 07:13:58;;;;;;;5.65;1.67;;;18.70;99.90;;;;;;5073931;28;20029;-70
2021/07/30 07:16:24;;;;;;;5.10;1.73;;;18.80;99.90;;;;;;5073642;28;20485;-70
2021/07/30 07:18:49;;;;;;;4.93;1.98;;;19.10;99.90;;;;;;5054084;28;20038;-70
2021/07/30 07:21:15;;;;;;;7.75;2.17;;;19.50;99.90;;;;;;5052591;28;20020;-69
2021/07/30 07:23:42;;;;;;;9.50;1.75;;;19.70;99.90;;;;;;5072504;28;20051;-70
2021/07/30 07:26:08;;;;;;;8.80;1.83;;;19.70;99.90;;;;;;5074117;28;20028;-70
2021/07/30 07:28:33;;;;;;;7.00;1.80;;;19.80;99.90;;;;;;5071955;28;20036;-70
2021/07/30 07:30:59;;;;;;;5.68;1.80;;;19.80;99.90;;;;;;5070599;28;20128;-70
2021/07/30 07:33:25;;;;;;;7.85;1.83;;;19.70;99.90;;;;;;5077976;28;20028;-70
2021/07/30 07:35:53;;;;;;;5.28;1.65;;;19.80;99.90;;;;;;5079416;28;20036;-69
2021/07/30 07:38:19;;;;;;;6.68;1.77;;;19.90;99.90;;;;;;5079476;28;20042;-70
2021/07/30 07:40:48;;;;;;;6.18;1.90;;;19.90;99.90;;;;;;5077532;28;20032;-70
2021/07/30 07:43:14;;;;;;;6.97;2.63;;;19.90;99.90;;;;;;5076396;28;20037;-70
2021/07/30 07:45:40;;;;;;;4.55;1.50;;;20.00;99.90;;;;;;5059514;28;20450;-70
2021/07/30 07:48:06;;;;;;;6.70;2.13;;;20.20;99.90;;;;;;5079613;28;20028;-70
2021/07/30 07:50:32;;;;;;;11.35;2.80;;;20.40;99.90;;;;;;5076410;28;21583;-70
2021/07/30 07:52:57;;;;;;;12.65;2.50;;;20.60;99.90;;;;;;5066192;28;20047;-70
2021/07/30 07:55:23;;;;;;;4.97;1.77;;;20.90;99.90;;;;;;5053343;28;20111;-70
2021/07/30 07:57:48;;;;;;;8.13;2.03;;;21.10;99.90;;;;;;5072581;28;20516;-70
2021/07/30 08:00:14;;;;;;;5.93;2.30;;;21.30;99.90;;;;;;5056686;28;20644;-70
2021/07/30 08:02:40;;;;;;;6.80;2.10;;;22.20;99.90;;;;;;5054071;28;20547;-70
2021/07/30 08:05:06;;;;;;;7.88;2.13;;;23.10;99.90;;;;;;5072549;28;20031;-70
2021/07/30 08:07:32;;;;;;;9.68;2.13;;;24.00;99.90;;;;;;5072891;28;20832;-70
2021/07/30 08:09:57;;;;;;;6.95;2.13;;;24.30;98.20;;;;;;5057291;28;20095;-70
2021/07/30 08:12:23;;;;;;;7.55;2.25;;;24.00;98.80;;;;;;5072674;28;20051;-70
2021/07/30 08:14:49;;;;;;;7.05;1.90;;;24.20;98.80;;;;;;5073641;28;20028;-70
2021/07/30 08:17:14;;;;;;;5.97;2.00;;;24.80;98.00;;;;;;5056524;28;20036;-70
2021/07/30 08:19:41;;;;;;;9.38;2.67;;;25.10;95.00;;;;;;5076079;28;20028;-71
2021/07/30 08:22:07;;;;;;;5.97;2.38;;;25.00;95.90;;;;;;5051632;28;20033;-70
2021/07/30 08:24:33;;;;;;;5.95;1.60;;;25.00;95.00;;;;;;5073116;28;20040;-70
2021/07/30 08:26:59;;;;;;;5.88;1.33;;;25.40;93.90;;;;;;5057297;28;20036;-71
2021/07/30 08:29:24;;;;;;;6.60;1.60;;;25.60;92.50;;;;;;5074582;28;20036;-70
2021/07/30 08:31:50;;;;;;;5.07;1.90;;;25.70;93.50;;;;;;5051763;28;20123;-70
2021/07/30 08:34:16;;;;;;;6.47;1.83;;;25.60;93.20;;;;;;5076867;28;20199;-70
2021/07/30 08:36:42;;;;;;;6.50;1.35;;;25.70;91.70;;;;;;5071888;28;20052;-70
2021/07/30 08:39:08;;;;;;;4.53;1.63;;;25.60;92.50;;;;;;5058474;28;20036;-69
2021/07/30 08:41:35;;;;;;;7.25;1.55;;;25.30;92.70;;;;;;5057314;28;20029;-70
2021/07/30 08:44:02;;;;;;;9.45;2.13;;;25.10;92.50;;;;;;5056946;28;20134;-70
2021/07/30 08:46:29;;;;;;;6.65;1.55;;;24.60;93.00;;;;;;5060020;28;20033;-70
2021/07/30 08:48:55;;;;;;;7.50;1.70;;;24.00;93.90;;;;;;5060522;28;20393;-70
2021/07/30 08:51:24;;;;;;;4.35;1.52;;;23.60;94.70;;;;;;5077418;28;20047;-71
2021/07/30 08:53:50;;;;;;;4.93;1.93;;;23.60;95.00;;;;;;5076780;28;20404;-70
2021/07/30 08:56:16;;;;;;;4.72;1.83;;;23.50;94.90;;;;;;5059929;28;20024;-70
2021/07/30 08:58:43;;;;;;;4.95;1.63;;;23.60;95.50;;;;;;5060931;28;20558;-70
2021/07/30 09:01:13;;;;;;;5.60;1.85;;;23.80;95.10;;;;;;5075335;28;20072;-70
2021/07/30 09:03:40;;;;;;;8.52;2.13;;;23.90;94.60;;;;;;5078191;28;20484;-70
2021/07/30 09:06:19;;;;;;;5.57;1.45;;;23.80;95.10;;;;;;5079095;28;20039;-69
2021/07/30 09:09:03;;;;;;;9.82;2.15;;;23.80;94.90;;;;;;5073324;28;20123;-70
2021/07/30 09:11:34;;;;;;;4.90;1.40;;;23.60;95.30;;;;;;5075238;28;20032;-70
2021/07/30 09:14:02;;;;;;;3.60;1.63;;;23.60;95.70;;;;;;5071168;28;20041;-70
2021/07/30 09:16:28;;;;;;;5.57;1.83;;;23.50;95.20;;;;;;5077913;28;20115;-70
2021/07/30 09:18:54;;;;;;;7.90;1.27;;;23.50;95.70;;;;;;5058686;28;20025;-70
2021/07/30 09:21:28;;;;;;;11.55;1.42;;;23.50;95.90;;;;;;5080828;28;20036;-70
2021/07/30 09:24:15;;;;;;;4.95;1.10;;;23.50;94.70;;;;;;5082334;28;20041;-70
2021/07/30 09:26:42;;;;;;;5.28;1.17;;;23.40;94.60;;;;;;5075007;28;20155;-74
2021/07/30 09:29:12;;;;;;;4.40;1.45;;;23.50;95.60;;;;;;5078489;28;20040;-70
2021/07/30 09:31:46;;;;;;;9.98;1.90;;;23.30;96.00;;;;;;5060794;28;20047;-70
2021/07/30 09:34:11;;;;;;;4.00;1.20;;;23.20;95.40;;;;;;5081598;28;20032;-70
2021/07/30 09:36:54;;;;;;;2.88;1.33;;;23.30;95.10;;;;;;5078172;28;20029;-70
2021/07/30 09:39:33;;;;;;;6.40;1.40;;;23.30;95.70;;;;;;5080358;28;20624;-70
2021/07/30 09:42:07;;;;;;;2.90;1.60;;;23.80;96.70;;;;;;5078465;28;20044;-70
2021/07/30 09:44:52;;;;;;;3.83;0.85;;;24.20;95.20;;;;;;5060884;28;20111;-70
2021/07/30 09:47:24;;;;;;;4.07;1.25;;;24.40;94.50;;;;;;5059665;28;20549;-70
2021/07/30 09:49:53;;;;;;;5.15;0.70;;;24.50;94.30;;;;;;5080214;28;20036;-70
2021/07/30 09:52:23;;;;;;;4.43;1.58;;;24.90;94.10;;;;;;5079921;28;20516;-69
2021/07/30 09:54:51;;;;;;;3.22;1.20;;;25.00;93.30;;;;;;5062256;28;20032;-70
2021/07/30 09:57:19;;;;;;;2.70;1.13;;;24.90;93.10;;;;;;5079047;28;20649;-70
2021/07/30 09:59:46;;;;;;;2.35;1.50;;;24.80;92.60;;;;;;5080551;28;20141;-70
2021/07/30 10:02:14;;;;;;;8.75;1.52;;;24.70;93.20;;;;;;5060224;28;20041;-70
2021/07/30 10:04:44;;;;;;;3.60;1.33;;;24.80;93.00;;;;;;5081324;28;20615;-70
2021/07/30 10:07:13;;;;;;;5.15;1.27;;;24.70;93.20;;;;;;5077792;28;20032;-70
2021/07/30 10:09:42;;;;;;;3.05;1.15;;;24.50;92.90;;;;;;5080288;28;20600;-70
2021/07/30 10:12:08;;;;;;;3.28;1.15;;;24.30;93.00;;;;;;5078010;28;20044;-70
2021/07/30 10:14:34;;;;;;;5.85;1.50;;;24.20;94.10;;;;;;5081819;28;20054;-69
2021/07/30 10:17:02;;;;;;;4.75;1.42;;;24.10;94.80;;;;;;5073844;28;20424;-70
2021/07/30 10:19:29;;;;;;;5.90;1.30;;;24.00;94.20;;;;;;5078005;28;20430;-70
2021/07/30 10:22:00;;;;;;;8.02;1.10;;;23.90;94.50;;;;;;5062670;28;20044;-70
2021/07/30 10:24:29;;;;;;;3.22;1.27;;;23.80;94.70;;;;;;5073776;28;20039;-70
2021/07/30 10:27:00;;;;;;;4.57;1.52;;;23.70;95.10;;;;;;5080571;28;20040;-70
2021/07/30 10:29:25;;;;;;;4.32;1.45;;;23.60;94.00;;;;;;5078006;28;20059;-70
2021/07/30 10:31:51;;;;;;;6.53;1.38;;;23.70;94.80;;;;;;5080798;28;20377;-70
2021/07/30 10:34:18;;;;;;;3.70;1.20;;;23.80;95.50;;;;;;5077485;28;20036;-70
2021/07/30 10:36:43;;;;;;;6.15;1.73;;;23.80;95.50;;;;;;5078796;28;20039;-70
2021/07/30 10:39:12;;;;;;;4.68;1.33;;;23.90;94.90;;;;;;5061140;28;20028;-70
2021/07/30 10:41:39;;;;;;;5.32;2.17;;;23.80;94.70;;;;;;5080361;28;20097;-70
2021/07/30 10:44:06;;;;;;;3.17;1.67;;;23.80;95.10;;;;;;5059777;28;20037;-70
2021/07/30 10:46:33;;;;;;;5.60;1.50;;;23.80;94.70;;;;;;5062426;28;20059;-70
2021/07/30 10:48:58;;;;;;;6.15;1.88;;;23.80;95.30;;;;;;5073757;28;20044;-70
2021/07/30 10:51:29;;;;;;;5.22;1.40;;;23.70;96.00;;;;;;5079960;28;20028;-70
2021/07/30 10:54:01;;;;;;;;;;;23.60;96.10;;;;;;5060269;28;20036;-70
2021/07/30 10:56:32;;;;;;;6.40;1.75;;;23.60;96.00;;;;;;5076617;28;19943;-70
2021/07/30 10:59:01;;;;;;;4.60;1.52;;;23.60;95.60;;;;;;5073384;28;20496;-70
2021/07/30 11:01:29;;;;;;;2.58;1.42;;;23.50;96.50;;;;;;5080298;28;20040;-70
2021/07/30 11:03:56;;;;;;;2.60;1.30;;;23.60;96.50;;;;;;5076870;28;20128;-70
2021/07/30 11:06:25;;;;;;;4.97;1.35;;;23.60;96.60;;;;;;5079088;28;20139;-70
2021/07/30 11:11:47;;;;;;;2.90;1.50;;;23.50;96.90;;;;;;5078238;28;20036;-68
2021/07/30 11:14:13;;;;;;;5.95;1.60;;;23.20;96.40;;;;;;5061381;28;20035;-68
2021/07/30 11:17:00;;;;;;;5.72;2.15;;;23.10;96.70;;;;;;5080478;28;20096;-68
2021/07/30 11:19:31;;;;;;;3.65;1.10;;;23.00;97.60;;;;;;5072894;28;20029;-67
2021/07/30 11:21:59;;;;;;;6.22;1.40;;;23.00;98.20;;;;;;5055121;28;20032;-67
2021/07/30 11:24:25;;;;;;;5.18;2.08;;;23.00;97.70;;;;;;5079815;28;20111;-68
2021/07/30 11:26:51;;;;;;;7.65;2.13;;;23.10;97.90;;;;;;5080074;28;20052;-67
2021/07/30 11:29:18;;;;;;;4.53;1.77;;;23.10;98.10;;;;;;5077309;28;20059;-70
2021/07/30 11:32:06;;;;;;;4.63;1.38;;;23.10;98.30;;;;;;5078445;28;20485;-67
2021/07/30 11:34:37;;;;;;;4.38;1.38;;;22.90;98.20;;;;;;5067031;28;20140;-67
2021/07/30 11:37:08;;;;;;;4.53;0.90;;;22.80;98.50;;;;;;5070076;28;20036;-67
2021/07/30 11:39:46;;;;;;;2.25;1.17;;;22.70;98.90;;;;;;5069025;28;20029;-68
2021/07/30 11:42:26;;;;;;;5.00;1.30;;;22.80;99.30;;;;;;5067745;28;20117;-67
2021/07/30 11:44:55;;;;;;;4.07;1.40;;;23.20;99.00;;;;;;5055411;28;20033;-67
2021/07/30 11:47:21;;;;;;;4.78;1.25;;;23.40;98.00;;;;;;5074443;28;20036;-67
2021/07/30 11:49:49;;;;;;;3.22;1.30;;;23.50;97.60;;;;;;5076071;28;20033;-67
2021/07/30 11:52:20;;;;;;;4.32;1.60;;;23.60;97.80;;;;;;5077384;28;20044;-67
2021/07/30 11:54:45;;;;;;;3.65;1.30;;;23.50;97.80;;;;;;5078357;28;20039;-70
2021/07/30 11:57:23;;;;;;;3.20;1.20;;;23.50;97.70;;;;;;5077816;28;20036;-68
2021/07/30 11:59:50;;;;;;;4.50;1.40;;;23.30;99.40;;;;;;5078779;28;20044;-68
2021/07/30 12:02:15;;;;;;;1.75;1.08;;;23.00;99.90;;;;;;5076780;28;20032;-68
2021/07/30 12:04:52;;;;;;;4.53;1.33;;;22.70;99.40;;;;;;5077598;28;20052;-68
2021/07/30 12:07:35;;;;;;;2.53;1.20;;;22.50;99.90;;;;;;5063608;28;20032;-68
2021/07/30 12:10:02;;;;;;;4.40;1.55;;;22.40;99.90;;;;;;5069963;28;20157;-70
2021/07/30 12:12:32;;;;;;;4.97;1.48;;;22.00;99.90;;;;;;5064286;28;20055;-70
2021/07/30 12:14:59;;;;;;;4.55;1.83;;;21.80;99.90;;;;;;5069304;28;20163;-70
2021/07/30 12:17:29;;;;;;;4.13;1.70;;;21.60;99.90;;;;;;5073164;28;20065;-70
2021/07/30 12:19:59;;;;;;;;;;;21.50;99.90;;;;;;5067039;28;20067;-70
2021/07/30 12:22:38;;;;;;;3.13;1.45;;;21.50;99.90;;;;;;5069158;28;19931;-70
2021/07/30 12:25:05;;;;;;;2.85;1.33;;;21.50;99.90;;;;;;5063210;28;20032;-70
2021/07/30 12:27:31;;;;;;;3.88;1.40;;;21.50;99.90;;;;;;5071333;28;20423;-70
2021/07/30 12:29:56;;;;;;;4.32;1.63;;;21.50;99.90;;;;;;5070447;28;20039;-71
2021/07/30 12:32:24;;;;;;;4.13;1.35;;;21.50;99.90;;;;;;5072950;28;20040;-70
2021/07/30 12:35:14;;;;;;;5.40;1.58;;;21.60;99.90;;;;;;5072301;28;20303;-71
2021/07/30 12:38:04;;;;;;;5.95;1.50;;;21.70;99.90;;;;;;5064289;28;20033;-70
2021/07/30 12:40:30;;;;;;;6.45;1.45;;;21.70;99.90;;;;;;5076471;28;20392;-70
2021/07/30 12:43:14;;;;;;;5.78;1.50;;;21.80;99.90;;;;;;5073787;28;20035;-71
2021/07/30 12:45:44;;;;;;;6.57;1.58;;;22.00;99.90;;;;;;5057154;28;20066;-70
2021/07/30 12:48:16;;;;;;;3.25;1.52;;;22.20;99.90;;;;;;5078583;28;20509;-71